Time;durP1;ratioP1;P1;durP2;ratioP2;P2;SDS_P1;SDS_P2;PMS_P1;PMS_P2;Temp;Humidity;BMP_temperature;BMP_pressure;BME280_temperature;BME280_humidity;BME280_pressure;Samples;Min_cycle;Max_cycle;Signal;HPM_P1;HPM_P2
2023/03/16 00:02:02;;;;;;;2.30;2.10;;;;;;;19.19;46.30;97851.69;4998975;28;20236;-92
2023/03/16 00:04:29;;;;;;;2.27;1.73;;;;;;;18.60;46.52;97741.25;4971959;28;20211;-91
2023/03/16 00:06:56;;;;;;;2.20;2.00;;;;;;;18.87;46.28;97793.38;5002193;28;20210;-91
2023/03/16 00:09:29;;;;;;;2.20;2.00;;;;;;;18.90;46.12;97798.59;4978328;28;20300;-90
2023/03/16 00:11:57;;;;;;;2.53;2.30;;;;;;;18.68;46.43;97766.22;4991129;28;20237;-91
2023/03/16 00:14:24;;;;;;;2.30;2.10;;;;;;;19.13;46.35;97841.25;4989804;28;20202;-91
2023/03/16 00:16:52;;;;;;;2.20;2.07;;;;;;;19.15;46.26;97837.94;4990601;28;20199;-91
2023/03/16 00:19:18;;;;;;;1.90;1.80;;;;;;;18.70;46.32;97769.72;5001968;28;20298;-92
2023/03/16 00:21:45;;;;;;;2.20;2.00;;;;;;;18.53;46.09;97734.16;4983203;28;20313;-91
2023/03/16 00:24:11;;;;;;;2.10;1.90;;;;;;;18.81;46.32;97816.03;4999331;28;20206;-92
2023/03/16 00:26:38;;;;;;;2.30;2.10;;;;;;;19.26;46.07;97874.97;4979538;28;20238;-91
2023/03/16 00:29:04;;;;;;;2.50;2.30;;;;;;;17.42;46.01;97546.78;4970190;28;20578;-91
2023/03/16 00:31:32;;;;;;;1.90;1.80;;;;;;;19.20;46.08;97853.44;4993417;28;20299;-91
2023/03/16 00:34:01;;;;;;;1.77;1.67;;;;;;;18.59;46.07;97749.72;4985495;28;20203;-92
2023/03/16 00:36:29;;;;;;;2.03;1.93;;;;;;;18.53;46.12;97749.44;4994201;28;20740;-91
2023/03/16 00:38:55;;;;;;;2.13;1.93;;;;;;;18.86;45.88;97796.75;4961700;28;20214;-92
2023/03/16 00:41:22;;;;;;;2.40;2.20;;;;;;;18.66;46.03;97757.69;4977568;28;20309;-91
2023/03/16 00:43:50;;;;;;;2.60;2.40;;;;;;;18.18;46.09;97668.97;4999825;28;20214;-90
2023/03/16 00:46:17;;;;;;;2.70;2.50;;;;;;;19.42;46.22;97884.19;4999911;28;20214;-91
2023/03/16 00:48:44;;;;;;;2.50;2.17;;;;;;;19.07;46.27;97836.72;5003147;28;20606;-91
2023/03/16 00:51:13;;;;;;;3.30;2.30;;;;;;;17.97;46.06;97642.56;4992500;28;20253;-91
2023/03/16 00:53:42;;;;;;;2.73;2.50;;;;;;;18.96;46.16;97826.88;4993288;28;20210;-92
2023/03/16 00:56:08;;;;;;;2.27;1.90;;;;;;;18.50;46.21;97744.22;4992708;28;20211;-93
2023/03/16 00:58:36;;;;;;;2.40;2.20;;;;;;;18.62;46.15;97754.94;4986981;28;20293;-90
2023/03/16 01:01:17;;;;;;;2.40;2.20;;;;;;;18.90;46.16;97818.97;4976946;28;20205;-91
2023/03/16 01:03:44;;;;;;;2.67;2.47;;;;;;;18.96;46.31;97831.97;4976623;28;20626;-92
2023/03/16 01:06:14;;;;;;;2.07;1.87;;;;;;;18.76;46.25;97794.56;4988631;28;20745;-92
2023/03/16 01:08:40;;;;;;;2.30;2.10;;;;;;;19.09;46.45;97860.59;5007945;28;20214;-91
2023/03/16 01:11:09;;;;;;;2.40;2.20;;;;;;;18.31;46.08;97711.94;4969049;28;20240;-92
2023/03/16 01:13:36;;;;;;;2.20;2.00;;;;;;;19.11;46.20;97859.00;4975496;28;20734;-91
2023/03/16 01:16:03;;;;;;;2.47;2.27;;;;;;;19.08;46.38;97850.34;4979641;28;20202;-91
2023/03/16 01:18:33;;;;;;;2.63;2.43;;;;;;;19.07;46.23;97843.53;5005522;28;20728;-92
2023/03/16 01:21:04;;;;;;;2.60;2.40;;;;;;;18.22;46.23;97693.72;4991771;28;20203;-92
2023/03/16 01:23:30;;;;;;;2.40;2.20;;;;;;;19.44;46.25;97906.38;4992435;28;20234;-91
2023/03/16 01:25:57;;;;;;;2.43;2.23;;;;;;;17.94;46.33;97652.56;5000381;28;20293;-91
2023/03/16 01:28:26;;;;;;;2.90;2.60;;;;;;;18.86;46.24;97806.94;4993374;28;20217;-91
2023/03/16 01:30:56;;;;;;;2.50;2.30;;;;;;;18.86;46.30;97791.66;4986833;28;20214;-92
2023/03/16 01:33:24;;;;;;;2.50;2.30;;;;;;;19.05;46.34;97825.63;4996229;28;20233;-91
2023/03/16 01:35:59;;;;;;;2.83;2.27;;;;;;;18.14;46.36;97669.59;4996455;28;20213;-92
2023/03/16 01:38:25;;;;;;;2.30;2.10;;;;;;;18.83;46.08;97783.88;4993856;28;20587;-91
2023/03/16 01:40:52;;;;;;;2.40;2.20;;;;;;;18.73;46.23;97768.97;4995880;28;20487;-91
2023/03/16 01:43:21;;;;;;;2.43;2.23;;;;;;;18.80;46.08;97779.50;4996670;28;20242;-91
2023/03/16 01:46:06;;;;;;;2.37;2.17;;;;;;;19.45;46.21;97895.38;4994913;28;20214;-91
2023/03/16 01:48:58;;;;;;;2.37;2.17;;;;;;;18.86;46.36;97794.19;5014177;28;20217;-91
2023/03/16 01:51:42;;;;;;;2.63;2.43;;;;;;;18.79;46.24;97776.88;4998644;28;20222;-91
2023/03/16 01:54:36;;;;;;;2.30;2.10;;;;;;;19.00;46.14;97810.94;4976418;28;20221;-91
2023/03/16 01:57:10;;;;;;;2.93;2.63;;;;;;;19.09;46.08;97832.59;5006435;28;20313;-91
2023/03/16 01:59:48;;;;;;;2.60;2.40;;;;;;;19.03;46.17;97827.22;4992153;28;20197;-91
2023/03/16 02:02:15;;;;;;;2.40;2.20;;;;;;;18.85;46.11;97790.78;5122114;22;20236;-84
2023/03/16 02:05:05;;;;;;;2.40;2.20;;;;;;;19.47;45.73;97900.53;4993389;28;20289;-85
2023/03/16 02:07:36;;;;;;;2.43;2.23;;;;;;;19.20;45.96;97845.78;5012082;28;20221;-84
2023/03/16 02:10:03;;;;;;;2.97;2.60;;;;;;;18.58;46.09;97741.19;4987840;28;20313;-85
2023/03/16 02:12:30;;;;;;;2.80;2.60;;;;;;;19.41;46.00;97898.59;4990222;28;20241;-85
2023/03/16 02:14:56;;;;;;;2.70;2.50;;;;;;;18.88;45.95;97792.56;4965824;28;20573;-85
2023/03/16 02:17:25;;;;;;;2.80;2.50;;;;;;;19.18;46.09;97850.81;4979639;28;20203;-85
2023/03/16 02:19:56;;;;;;;2.60;2.40;;;;;;;19.44;46.18;97891.09;4977958;28;20277;-85
2023/03/16 02:22:23;;;;;;;2.70;2.50;;;;;;;19.45;46.14;97894.53;4993405;28;20249;-84
2023/03/16 02:24:53;;;;;;;3.10;2.80;;;;;;;19.43;45.96;97891.91;4996724;28;20230;-82
2023/03/16 02:28:02;;;;;;;2.50;2.30;;;;;;;19.43;46.25;97891.03;4964339;28;20206;-84
2023/03/16 02:30:29;;;;;;;3.17;2.40;;;;;;;19.24;46.22;97858.72;5005069;28;20234;-86
2023/03/16 02:32:56;;;;;;;2.70;2.50;;;;;;;19.44;46.63;97892.75;4982415;28;20754;-84
2023/03/16 02:35:22;;;;;;;2.53;2.33;;;;;;;19.19;46.54;97849.16;5000727;28;20230;-84
2023/03/16 02:37:51;;;;;;;3.13;2.80;;;;;;;19.08;46.08;97832.53;4974965;28;20198;-84
2023/03/16 02:40:23;;;;;;;2.53;2.33;;;;;;;19.42;46.17;97884.19;4983569;28;20203;-85
2023/03/16 02:42:58;;;;;;;2.60;2.40;;;;;;;16.66;46.19;97407.84;4988476;28;20232;-82
2023/03/16 02:45:25;;;;;;;2.77;2.57;;;;;;;19.16;46.09;97836.28;4976302;28;20211;-85
2023/03/16 02:47:52;;;;;;;2.80;2.50;;;;;;;18.86;46.19;97784.84;4963012;28;20213;-84
2023/03/16 02:50:18;;;;;;;2.83;2.63;;;;;;;19.43;46.10;97880.81;4984645;28;20258;-84
2023/03/16 02:52:47;;;;;;;2.57;2.37;;;;;;;19.42;46.31;97885.03;4998749;28;20231;-84
2023/03/16 02:55:14;;;;;;;2.87;2.50;;;;;;;19.43;45.93;97880.81;4997862;28;20599;-85
2023/03/16 02:57:40;;;;;;;2.63;2.43;;;;;;;18.61;46.17;97740.44;4997435;28;20214;-85
2023/03/16 03:00:16;;;;;;;2.77;2.57;;;;;;;19.43;46.11;97886.81;4974550;28;20206;-85
2023/03/16 03:02:44;;;;;;;2.50;2.30;;;;;;;18.60;46.10;97744.69;5001909;28;20241;-82
2023/03/16 03:05:11;;;;;;;2.80;2.60;;;;;;;19.24;46.09;97857.84;4977795;28;20203;-85
2023/03/16 03:07:37;;;;;;;2.77;2.57;;;;;;;19.15;46.07;97845.59;4977326;28;20266;-84
2023/03/16 03:10:05;;;;;;;2.70;2.50;;;;;;;18.82;46.06;97787.22;4980808;28;20807;-85
2023/03/16 03:12:32;;;;;;;2.80;2.50;;;;;;;19.11;46.08;97828.44;4990912;28;20610;-85
2023/03/16 03:14:59;;;;;;;3.03;2.40;;;;;;;19.45;45.75;97876.69;4981510;28;20643;-84
2023/03/16 03:17:28;;;;;;;3.20;2.90;;;;;;;18.18;45.72;97671.50;4989602;28;20720;-85
2023/03/16 03:19:57;;;;;;;2.90;2.60;;;;;;;18.08;46.00;97649.00;4997302;28;20206;-84
2023/03/16 03:22:25;;;;;;;3.47;2.53;;;;;;;18.48;45.90;97726.31;4962196;28;20237;-85
2023/03/16 03:24:51;;;;;;;2.63;2.43;;;;;;;19.45;45.99;97887.72;4989440;28;20211;-84
2023/03/16 03:27:19;;;;;;;2.60;2.40;;;;;;;18.56;46.03;97731.75;4994683;28;20211;-84
2023/03/16 03:29:46;;;;;;;2.93;2.60;;;;;;;18.50;45.78;97711.13;4996627;28;20217;-84
2023/03/16 03:32:12;;;;;;;2.50;2.30;;;;;;;19.45;45.80;97881.78;4969308;28;20593;-84
2023/03/16 03:34:41;;;;;;;2.83;2.63;;;;;;;19.44;45.75;97880.88;4993206;28;20252;-85
2023/03/16 03:37:08;;;;;;;3.43;2.90;;;;;;;18.01;45.95;97626.66;4996927;28;20207;-85
2023/03/16 03:39:34;;;;;;;2.90;2.60;;;;;;;19.09;45.78;97819.84;4974750;28;20243;-85
2023/03/16 03:42:01;;;;;;;2.60;2.40;;;;;;;19.28;45.52;97853.03;4991099;28;20234;-84
2023/03/16 03:44:28;;;;;;;2.80;2.60;;;;;;;18.81;45.87;97767.66;4994725;28;20658;-86
2023/03/16 03:46:54;;;;;;;3.37;3.07;;;;;;;19.42;45.71;97872.28;4989638;28;20662;-85
2023/03/16 03:49:21;;;;;;;2.60;2.40;;;;;;;18.36;45.65;97691.78;5000378;28;20229;-85
2023/03/16 03:51:48;;;;;;;2.80;2.60;;;;;;;19.42;45.99;97871.44;5014079;28;20285;-84
2023/03/16 03:54:14;;;;;;;2.83;2.50;;;;;;;19.42;46.34;97879.09;4997158;28;20293;-83
2023/03/16 03:56:41;;;;;;;2.57;2.37;;;;;;;18.68;45.90;97752.66;5014431;28;20286;-84
2023/03/16 03:59:08;;;;;;;2.70;2.50;;;;;;;18.80;46.11;97768.47;4978926;28;20285;-85
2023/03/16 04:01:34;;;;;;;3.20;2.90;;;;;;;19.04;46.04;97813.69;4986506;28;20227;-85
2023/03/16 04:04:01;;;;;;;2.43;2.23;;;;;;;19.40;46.46;97879.03;4985797;28;20289;-84
2023/03/16 04:06:27;;;;;;;3.07;2.50;;;;;;;19.27;46.03;97861.44;4994338;28;20229;-85
2023/03/16 04:08:54;;;;;;;2.60;2.40;;;;;;;18.82;46.13;97779.56;4997981;28;20737;-85
2023/03/16 04:11:20;;;;;;;2.87;2.60;;;;;;;19.04;45.87;97823.88;4990639;28;20286;-84
2023/03/16 04:13:50;;;;;;;2.70;2.50;;;;;;;19.41;45.91;97890.97;4983006;28;20246;-81
2023/03/16 04:16:16;;;;;;;2.57;2.37;;;;;;;18.87;46.06;97798.47;4990407;28;20298;-85
2023/03/16 04:18:45;;;;;;;2.40;2.20;;;;;;;19.00;46.03;97828.75;4966802;28;20216;-83
2023/03/16 04:21:14;;;;;;;2.63;2.30;;;;;;;19.14;45.97;97860.81;4980842;28;20271;-82
2023/03/16 04:23:41;;;;;;;3.00;2.70;;;;;;;19.24;45.91;97870.59;4954942;28;20258;-82
2023/03/16 04:26:08;;;;;;;2.90;2.70;;;;;;;19.06;45.98;97839.22;4983027;28;20362;-84
2023/03/16 04:28:34;;;;;;;2.80;2.60;;;;;;;18.59;45.91;97747.16;4978363;28;20649;-85
2023/03/16 04:31:02;;;;;;;2.93;2.73;;;;;;;18.86;46.00;97787.41;4966170;28;20680;-84
2023/03/16 04:33:28;;;;;;;2.90;2.70;;;;;;;18.37;45.96;97704.63;4984634;28;20313;-84
2023/03/16 04:35:55;;;;;;;2.77;2.57;;;;;;;19.44;46.09;97888.53;4970617;28;20206;-84
2023/03/16 04:38:21;;;;;;;2.40;2.20;;;;;;;19.45;46.01;97881.78;4994822;28;20198;-84
2023/03/16 04:40:48;;;;;;;2.70;2.50;;;;;;;19.15;45.76;97825.22;4986346;28;20250;-81
2023/03/16 04:43:14;;;;;;;2.83;2.57;;;;;;;19.45;45.91;97869.03;4991941;28;20227;-85
2023/03/16 04:45:41;;;;;;;2.60;2.40;;;;;;;19.45;45.67;97871.56;5011023;28;20207;-85
2023/03/16 04:48:08;;;;;;;2.67;2.47;;;;;;;19.06;45.70;97801.00;4995319;28;20588;-83
2023/03/16 04:50:35;;;;;;;2.90;2.63;;;;;;;19.10;45.88;97816.50;4974303;28;20261;-85
2023/03/16 04:53:03;;;;;;;2.77;2.53;;;;;;;19.14;45.95;97814.94;4988594;28;20259;-84
2023/03/16 04:55:30;;;;;;;2.97;2.77;;;;;;;19.19;45.66;97821.13;4992538;28;20301;-85
2023/03/16 04:57:56;;;;;;;2.30;2.10;;;;;;;19.10;45.65;97805.44;4979507;28;20212;-84
2023/03/16 05:00:23;;;;;;;2.80;2.60;;;;;;;19.25;45.73;97829.03;4992770;28;20238;-84
2023/03/16 05:02:50;;;;;;;2.50;2.30;;;;;;;18.78;45.85;97748.03;4996096;28;20771;-81
2023/03/16 05:05:17;;;;;;;2.83;2.63;;;;;;;18.98;45.78;97787.09;4977932;28;20206;-84
2023/03/16 05:07:44;;;;;;;2.70;2.50;;;;;;;19.09;45.88;97799.47;4987245;28;20509;-83
2023/03/16 05:10:12;;;;;;;2.70;2.50;;;;;;;19.22;46.03;97821.25;4989445;28;20214;-84
2023/03/16 05:12:39;;;;;;;2.40;2.20;;;;;;;18.39;45.99;97679.25;4974992;28;20218;-85
2023/03/16 05:15:06;;;;;;;3.07;2.60;;;;;;;18.69;45.97;97739.13;4972659;28;20224;-84
2023/03/16 05:17:33;;;;;;;2.73;2.53;;;;;;;18.82;45.71;97749.00;4991911;28;20636;-84
2023/03/16 05:20:00;;;;;;;2.53;2.33;;;;;;;18.52;46.26;97699.31;4990200;28;20202;-82
2023/03/16 05:22:26;;;;;;;2.60;2.40;;;;;;;17.19;45.70;97469.56;4986889;28;20265;-85
2023/03/16 05:24:53;;;;;;;2.73;2.53;;;;;;;18.35;45.94;97662.06;4971113;28;20202;-84
2023/03/16 05:27:19;;;;;;;2.33;2.20;;;;;;;18.18;45.77;97636.75;4993579;28;20696;-83
2023/03/16 05:29:46;;;;;;;2.50;2.30;;;;;;;18.89;46.03;97756.13;4969230;28;20295;-84
2023/03/16 05:32:13;;;;;;;2.43;2.23;;;;;;;19.14;45.84;97804.75;4959973;28;20238;-84
2023/03/16 05:34:42;;;;;;;3.43;2.70;;;;;;;18.47;45.40;97683.84;4970406;28;20211;-84
2023/03/16 05:37:08;;;;;;;2.60;2.40;;;;;;;18.57;45.72;97701.28;4982082;28;20208;-84
2023/03/16 05:39:35;;;;;;;2.30;2.10;;;;;;;19.03;45.78;97786.47;5009416;28;20198;-84
2023/03/16 05:42:02;;;;;;;3.07;2.70;;;;;;;19.21;45.81;97814.41;5004831;28;20333;-85
2023/03/16 05:44:29;;;;;;;2.50;2.30;;;;;;;19.41;46.18;97847.63;5003438;28;20607;-84
2023/03/16 05:46:56;;;;;;;2.63;2.27;;;;;;;19.42;45.81;97851.06;5004232;28;20202;-84
2023/03/16 05:49:22;;;;;;;2.20;2.10;;;;;;;18.73;46.11;97741.84;5001979;28;20689;-85
2023/03/16 05:51:49;;;;;;;2.70;2.50;;;;;;;18.69;46.00;97727.25;4976281;28;20219;-85
2023/03/16 05:54:16;;;;;;;2.50;2.30;;;;;;;18.74;45.62;97733.41;5006117;28;20238;-88
2023/03/16 05:56:42;;;;;;;2.70;2.50;;;;;;;19.44;45.57;97860.50;4981750;28;20206;-84
2023/03/16 05:59:09;;;;;;;2.40;2.20;;;;;;;18.19;45.60;97641.06;4994350;28;20203;-85
2023/03/16 06:01:36;;;;;;;2.43;2.23;;;;;;;18.84;45.46;97755.94;4992339;28;20257;-82
2023/03/16 06:04:04;;;;;;;2.67;2.47;;;;;;;19.44;45.56;97857.94;4987832;28;20293;-84
2023/03/16 06:06:30;;;;;;;2.60;2.20;;;;;;;19.19;45.39;97821.97;4993749;28;20207;-84
2023/03/16 06:08:57;;;;;;;2.70;2.50;;;;;;;19.45;45.25;97863.94;4991441;28;20215;-84
2023/03/16 06:11:23;;;;;;;2.60;2.40;;;;;;;18.86;45.51;97761.94;4988430;28;20220;-84
2023/03/16 06:13:50;;;;;;;2.53;2.33;;;;;;;18.77;45.67;97751.34;4970763;28;20210;-84
2023/03/16 06:16:16;;;;;;;2.47;2.27;;;;;;;18.41;45.46;97685.28;4993187;28;20596;-84
2023/03/16 06:18:43;;;;;;;2.10;2.00;;;;;;;19.10;45.93;97802.91;5009168;28;20210;-84
2023/03/16 06:21:10;;;;;;;3.47;2.83;;;;;;;18.87;45.29;97775.56;4974074;28;20286;-85
2023/03/16 06:23:36;;;;;;;4.50;4.00;;;;;;;18.61;44.57;97725.16;4994381;28;20207;-84
2023/03/16 06:26:04;;;;;;;5.37;4.83;;;;;;;18.75;43.53;97747.00;4990928;28;20203;-85
2023/03/16 06:28:30;;;;;;;6.73;5.97;;;;;;;19.41;41.94;97867.13;4991501;28;20207;-85
2023/03/16 06:30:57;;;;;;;6.67;5.83;;;;;;;19.05;41.12;97800.16;4988700;28;20231;-85
2023/03/16 06:33:24;;;;;;;11.53;5.87;;;;;;;18.76;41.55;97752.16;4973899;28;20227;-85
2023/03/16 06:35:50;;;;;;;5.67;5.17;;;;;;;19.40;41.76;97862.84;4993494;28;20206;-85
2023/03/16 06:38:17;;;;;;;5.97;5.30;;;;;;;18.59;42.59;97721.72;4982539;28;20237;-85
2023/03/16 06:40:44;;;;;;;5.70;5.10;;;;;;;19.38;43.18;97865.34;4988575;28;20264;-83
2023/03/16 06:43:11;;;;;;;5.23;4.73;;;;;;;19.39;43.31;97868.78;4998964;28;20701;-84
2023/03/16 06:45:37;;;;;;;5.60;4.70;;;;;;;19.12;44.06;97817.44;4998922;28;20293;-84
2023/03/16 06:48:05;;;;;;;4.50;4.20;;;;;;;19.39;44.24;97869.63;4993729;28;20207;-86
2023/03/16 06:50:32;;;;;;;4.50;4.10;;;;;;;18.87;44.42;97771.34;4993196;28;20314;-86
2023/03/16 06:52:58;;;;;;;5.10;4.60;;;;;;;19.39;43.42;97878.97;4973101;28;20774;-85
2023/03/16 06:55:25;;;;;;;9.77;6.10;;;;;;;18.23;42.46;97676.81;4979379;28;20214;-86
2023/03/16 06:57:51;;;;;;;9.50;5.60;;;;;;;19.38;42.82;97882.28;4976634;28;20230;-85
2023/03/16 07:00:18;;;;;;;6.73;5.53;;;;;;;18.54;42.04;97738.44;5001834;28;20254;-85
2023/03/16 07:02:45;;;;;;;7.43;5.20;;;;;;;18.97;42.57;97810.78;5004220;28;20255;-82
2023/03/16 07:05:14;;;;;;;7.80;5.67;;;;;;;17.54;42.16;97566.06;4989660;28;20235;-84
2023/03/16 07:07:41;;;;;;;6.50;5.10;;;;;;;18.88;42.68;97790.91;4993723;28;20553;-85
2023/03/16 07:10:10;;;;;;;5.63;5.07;;;;;;;19.37;42.95;97872.91;4991396;28;20203;-86
2023/03/16 07:12:37;;;;;;;7.70;5.20;;;;;;;18.48;43.08;97725.44;4977783;28;20601;-84
2023/03/16 07:15:04;;;;;;;5.33;4.83;;;;;;;19.37;43.11;97876.34;4990233;28;20581;-82
2023/03/16 07:17:31;;;;;;;5.53;4.67;;;;;;;18.77;43.37;97775.97;4991998;28;20218;-85
2023/03/16 07:19:57;;;;;;;7.40;6.07;;;;;;;19.10;43.07;97841.13;4987209;28;20298;-83
2023/03/16 07:22:24;;;;;;;7.33;5.10;;;;;;;18.40;43.08;97726.75;4992280;28;20694;-86
2023/03/16 07:24:55;;;;;;;7.93;5.70;;;;;;;19.36;43.28;97896.66;4993798;28;20286;-85
2023/03/16 07:27:23;;;;;;;8.37;7.27;;;;;;;18.46;40.65;97738.09;4976526;28;20199;-85
2023/03/16 07:29:51;;;;;;;10.00;8.23;;;;;;;18.64;39.46;97776.22;4959766;28;20205;-85
2023/03/16 07:32:18;;;;;;;8.77;7.00;;;;;;;17.92;39.35;97655.06;4973036;28;20364;-86
2023/03/16 07:34:44;;;;;;;8.60;7.37;;;;;;;19.29;40.36;97915.03;4955897;28;20207;-86
2023/03/16 07:37:11;;;;;;;8.00;7.00;;;;;;;19.04;40.47;97863.78;4988730;28;20418;-86
2023/03/16 07:39:37;;;;;;;9.93;7.37;;;;;;;18.38;41.25;97749.59;4968318;28;20235;-85
2023/03/16 07:42:04;;;;;;;8.70;6.80;;;;;;;18.08;41.66;97704.94;4991660;28;20724;-85
2023/03/16 07:44:31;;;;;;;9.00;6.50;;;;;;;19.28;41.92;97910.75;4992132;28;20252;-85
2023/03/16 07:46:57;;;;;;;11.33;7.30;;;;;;;19.28;42.07;97910.75;4989128;28;20593;-85
2023/03/16 07:49:24;;;;;;;7.37;6.57;;;;;;;19.06;42.35;97877.41;5007790;28;20203;-86
2023/03/16 07:51:50;;;;;;;7.17;6.47;;;;;;;19.00;42.52;97861.88;4992758;28;20655;-85
2023/03/16 07:54:17;;;;;;;8.13;6.53;;;;;;;17.78;42.84;97650.16;4971106;28;20470;-85
2023/03/16 07:56:43;;;;;;;6.20;5.60;;;;;;;18.72;42.74;97808.88;4987216;28;20329;-85
2023/03/16 07:59:15;;;;;;;6.47;5.87;;;;;;;19.07;42.48;97866.44;4978467;28;20231;-85
2023/03/16 08:04:11;;;;;;;7.70;6.47;;;;;;;18.97;42.85;97849.88;5026207;22;20226;-91
2023/03/16 08:06:37;;;;;;;6.83;6.13;;;;;;;18.76;43.12;97817.50;4967806;28;20209;-91
2023/03/16 08:09:04;;;;;;;8.60;6.60;;;;;;;19.11;43.09;97879.41;4988229;28;20210;-90
2023/03/16 08:11:31;;;;;;;6.53;5.80;;;;;;;18.74;42.83;97819.13;4996948;28;20218;-90
2023/03/16 08:13:57;;;;;;;6.50;5.90;;;;;;;18.65;43.23;97801.72;4985208;28;20218;-89
2023/03/16 08:16:25;;;;;;;7.23;6.53;;;;;;;18.92;43.29;97845.41;4960101;28;20237;-91
2023/03/16 08:18:54;;;;;;;7.17;6.10;;;;;;;18.90;43.59;97850.41;4977446;28;20289;-91
2023/03/16 08:21:21;;;;;;;7.00;6.30;;;;;;;19.38;43.58;97925.63;4944356;28;20207;-91
2023/03/16 08:23:49;;;;;;;7.47;6.37;;;;;;;18.80;43.56;97814.31;4965242;28;20225;-90
2023/03/16 08:26:18;;;;;;;7.10;6.40;;;;;;;18.31;43.64;97727.22;4944628;28;20214;-91
2023/03/16 08:28:45;;;;;;;7.57;6.73;;;;;;;19.30;43.54;97914.25;4974156;28;20269;-90
2023/03/16 08:31:13;;;;;;;7.03;6.30;;;;;;;18.74;43.62;97806.38;4949626;28;20616;-91
2023/03/16 08:33:41;;;;;;;7.30;6.60;;;;;;;19.21;43.78;97894.28;4961260;28;20219;-90
2023/03/16 08:36:09;;;;;;;7.07;6.37;;;;;;;18.53;43.60;97774.88;4950680;28;20208;-90
2023/03/16 08:38:35;;;;;;;6.77;6.17;;;;;;;18.81;43.89;97811.81;4953182;28;20206;-90
2023/03/16 08:41:02;;;;;;;8.80;6.23;;;;;;;19.42;43.92;97923.28;4963344;28;20204;-89
2023/03/16 08:43:28;;;;;;;7.13;6.27;;;;;;;18.87;43.87;97824.81;4981477;28;20218;-90
2023/03/16 08:45:55;;;;;;;7.03;6.30;;;;;;;18.92;44.04;97825.88;4964315;28;20680;-91
2023/03/16 08:48:22;;;;;;;6.67;6.07;;;;;;;18.86;44.04;97815.41;4963483;28;20207;-90
2023/03/16 08:50:48;;;;;;;6.40;5.80;;;;;;;18.61;44.13;97770.97;4960487;28;20302;-90
2023/03/16 08:53:15;;;;;;;7.07;6.37;;;;;;;18.79;43.84;97797.25;4976857;28;20230;-90
2023/03/16 08:55:41;;;;;;;6.63;5.90;;;;;;;19.16;43.97;97870.25;4956361;28;20659;-90
2023/03/16 08:58:09;;;;;;;6.70;6.10;;;;;;;18.65;44.00;97780.53;4962540;28;20203;-91
2023/03/16 09:00:36;;;;;;;7.73;5.93;;;;;;;18.33;44.26;97738.34;4962489;28;20294;-90
2023/03/16 09:03:03;;;;;;;6.23;5.40;;;;;;;18.81;44.33;97813.47;4962949;28;20231;-88
2023/03/16 09:05:30;;;;;;;6.00;5.40;;;;;;;18.90;44.50;97821.53;4961748;28;20203;-92
2023/03/16 09:07:57;;;;;;;5.73;5.23;;;;;;;18.82;44.47;97823.75;4964127;28;20198;-89
2023/03/16 09:10:24;;;;;;;5.87;5.37;;;;;;;19.36;44.12;97900.06;4960638;28;20293;-91
2023/03/16 09:12:51;;;;;;;6.13;5.30;;;;;;;18.82;44.59;97831.38;4975654;28;20321;-90
2023/03/16 09:15:19;;;;;;;7.83;5.50;;;;;;;19.15;44.72;97878.72;4963774;28;20216;-91
2023/03/16 09:17:46;;;;;;;6.10;5.53;;;;;;;18.77;44.78;97807.38;4947038;28;20203;-91
2023/03/16 09:20:14;;;;;;;6.27;5.67;;;;;;;18.41;44.63;97729.38;4981461;28;20713;-91
2023/03/16 09:23:00;;;;;;;5.70;5.10;;;;;;;18.94;44.76;97829.38;4966926;28;20297;-90
2023/03/16 09:25:26;;;;;;;5.30;4.80;;;;;;;18.87;44.62;97812.09;4984156;28;20639;-91
2023/03/16 09:27:54;;;;;;;6.40;5.67;;;;;;;18.54;44.87;97753.72;4994035;28;20203;-91
2023/03/16 09:30:21;;;;;;;5.53;5.00;;;;;;;19.33;44.78;97894.84;4958511;28;20218;-91
2023/03/16 09:32:47;;;;;;;5.33;4.83;;;;;;;19.19;44.68;97872.94;4992617;28;20313;-90
2023/03/16 09:35:14;;;;;;;6.23;5.57;;;;;;;18.74;44.89;97793.66;4976154;28;20214;-91
2023/03/16 09:37:41;;;;;;;5.73;4.93;;;;;;;19.29;44.73;97892.09;4959104;28;20777;-91
2023/03/16 09:40:29;;;;;;;5.57;5.07;;;;;;;18.58;44.72;97771.72;4992792;28;20294;-90
2023/03/16 09:43:08;;;;;;;5.40;4.90;;;;;;;19.36;44.84;97894.97;4963373;28;20266;-91
2023/03/16 09:45:48;;;;;;;5.63;5.13;;;;;;;19.36;44.66;97889.88;4986381;28;20210;-91
2023/03/16 09:48:15;;;;;;;5.30;4.80;;;;;;;18.92;44.67;97828.41;4983350;28;20217;-91
2023/03/16 09:50:43;;;;;;;5.50;5.00;;;;;;;18.66;44.84;97764.44;4959087;28;20363;-91
2023/03/16 09:53:23;;;;;;;5.83;5.27;;;;;;;19.18;44.46;97850.81;4967618;28;20280;-91
2023/03/16 09:56:03;;;;;;;5.70;5.20;;;;;;;19.36;44.47;97883.94;4983525;28;20199;-91
2023/03/16 09:58:31;;;;;;;7.47;5.50;;;;;;;18.94;44.45;97805.56;4970930;28;20203;-90
2023/03/16 10:01:08;;;;;;;5.70;5.20;;;;;;;19.12;43.96;97850.56;4962316;28;20207;-91
2023/03/16 10:04:00;;;;;;;6.10;5.50;;;;;;;18.81;44.46;97788.03;4991363;28;20230;-91
2023/03/16 10:06:27;;;;;;;5.97;5.47;;;;;;;18.07;44.72;97658.31;4966320;28;20235;-91
2023/03/16 10:09:12;;;;;;;5.20;4.77;;;;;;;19.35;44.42;97883.03;4967273;28;20203;-90
2023/03/16 10:11:41;;;;;;;5.97;5.40;;;;;;;18.89;44.43;97801.97;4950646;28;20231;-91
2023/03/16 10:14:18;;;;;;;6.17;5.57;;;;;;;19.36;44.40;97873.75;4988033;28;20709;-90
2023/03/16 10:16:55;;;;;;;5.50;5.00;;;;;;;19.34;44.39;97877.88;4980972;28;20202;-91
2023/03/16 10:19:42;;;;;;;5.73;5.23;;;;;;;19.35;44.33;97872.84;4969183;28;20667;-91
2023/03/16 10:22:25;;;;;;;5.43;4.97;;;;;;;18.45;44.11;97707.50;4950923;28;20258;-90
2023/03/16 10:25:04;;;;;;;5.63;5.13;;;;;;;19.34;44.30;97866.03;4956829;28;20229;-91
2023/03/16 10:27:32;;;;;;;5.33;4.83;;;;;;;18.90;44.41;97791.84;4995155;28;20302;-90
2023/03/16 10:30:00;;;;;;;5.13;4.73;;;;;;;18.67;44.24;97741.59;4954470;28;20207;-90
2023/03/16 10:32:30;;;;;;;5.83;5.30;;;;;;;19.34;44.27;97855.81;4962853;28;20261;-91
2023/03/16 10:35:01;;;;;;;5.50;5.00;;;;;;;19.35;44.29;97861.78;4967947;28;20210;-91
2023/03/16 10:37:28;;;;;;;5.77;5.27;;;;;;;18.60;44.14;97720.91;4980952;28;20207;-91
2023/03/16 10:39:56;;;;;;;5.63;5.13;;;;;;;19.17;44.42;97836.34;4971617;28;20215;-91
2023/03/16 10:42:23;;;;;;;8.30;5.30;;;;;;;18.74;44.34;97738.50;4991979;28;20218;-91
2023/03/16 10:44:55;;;;;;;5.40;4.90;;;;;;;19.14;44.34;97807.31;4965720;28;20643;-90
2023/03/16 10:47:24;;;;;;;5.27;4.83;;;;;;;18.67;44.00;97739.03;4977229;28;20678;-90
2023/03/16 10:49:50;;;;;;;5.60;5.10;;;;;;;18.81;44.20;97735.44;4952735;28;20230;-91
2023/03/16 10:52:41;;;;;;;5.87;5.37;;;;;;;19.40;44.16;97843.34;4977912;28;20322;-91
2023/03/16 10:55:23;;;;;;;5.27;4.77;;;;;;;19.22;44.20;97829.75;4964179;28;20225;-91
2023/03/16 10:57:52;;;;;;;5.70;5.20;;;;;;;19.02;44.21;97771.13;4968705;28;20265;-91
2023/03/16 11:00:27;;;;;;;5.83;5.33;;;;;;;18.85;44.30;97732.19;4958554;28;20218;-90
2023/03/16 11:02:54;;;;;;;5.90;5.30;;;;;;;18.67;44.04;97693.22;4949626;28;20234;-90
2023/03/16 11:05:26;;;;;;;5.30;4.80;;;;;;;19.43;44.08;97822.22;4965021;28;20293;-91
2023/03/16 11:08:01;;;;;;;6.17;4.63;;;;;;;19.43;44.05;97820.53;4963725;28;20222;-91
2023/03/16 11:10:32;;;;;;;6.60;4.93;;;;;;;19.01;44.21;97752.41;4980266;28;20471;-91
2023/03/16 11:13:14;;;;;;;5.47;4.87;;;;;;;18.72;44.00;97685.78;4947806;28;20510;-91
2023/03/16 11:15:54;;;;;;;5.33;4.83;;;;;;;19.45;44.04;97816.34;4958870;28;20203;-91
2023/03/16 11:18:23;;;;;;;5.73;5.20;;;;;;;18.87;43.98;97706.81;4981932;28;20689;-91
2023/03/16 11:20:51;;;;;;;5.30;4.80;;;;;;;18.81;44.04;97702.34;4968015;28;20207;-91
2023/03/16 11:23:18;;;;;;;5.13;4.63;;;;;;;19.10;43.86;97765.53;4957722;28;20309;-91
2023/03/16 11:25:46;;;;;;;6.00;5.40;;;;;;;18.74;44.05;97682.50;4955290;28;20231;-91
2023/03/16 11:28:28;;;;;;;5.50;4.80;;;;;;;19.06;44.52;97737.31;4969479;28;20216;-90
2023/03/16 11:31:10;;;;;;;6.23;5.63;;;;;;;19.44;43.52;97798.44;4962801;28;20238;-90
2023/03/16 11:33:37;;;;;;;6.57;5.97;;;;;;;18.83;42.42;97694.75;4975996;28;20223;-90
2023/03/16 11:36:48;;;;;;;6.50;5.90;;;;;;;18.75;42.37;97679.16;4970138;28;20285;-90
2023/03/16 11:39:42;;;;;;;6.57;5.97;;;;;;;19.38;43.12;97781.22;4894688;29;20210;-90
2023/03/16 11:42:22;;;;;;;6.17;5.57;;;;;;;18.88;43.07;97694.13;4987825;28;20223;-90
2023/03/16 11:45:08;;;;;;;5.47;4.97;;;;;;;19.36;43.25;97782.00;4967078;28;20203;-89
2023/03/16 11:47:57;;;;;;;6.07;4.97;;;;;;;19.34;43.65;97769.19;4974579;28;20202;-90